Fort Yukon Airport Fort Yukon US
ICAO: PFYU
IATA:
Category: Medium
Scheduled Services:

Elevation: 433 ft
TransAlt. 18000 ft.

Airport Communications:
AWOS 3:125.8
ANCHORAGE CNTR:135
CTAF:122.5
FAIRBANKS RDO:122.1
EIELSON RANGE CON:125.3
TWEB:114.4

PFYU Zoom In..

If you have problems with the map follow the link
https://www.worldairports.se/pages/airport.php?
ICAO=PFYU

Runways:

(A) RW 04 length 5000 ft width 100 ft
---- / hdg 35

(B) RW 22 length 5000 ft width 100 ft
---- / hdg 215

Location; PFYU
Day. 11 / Time. 12.56 Zulu
* Altimeter: 29.83
* Temperature: -12° c. -10.4°f.
* Wind from: 050° Speed 05 kn.
Dewpoint: -15° c.
Visibility: 10 Statute Miles.
Clouds: Clear (automated report).

PFYU 111256Z AUTO 05005KT 10SM CLR M12/M15 A2983 RMK AO2 SLP127 T11171150 FZRANO


Wind From 050°
Speed 05 kn.

 
 
jpsmedia worldairports.se 2019   terms of use